Terminal Aerodrome Forecast
Issued by NWS Charleston, SC

Home | Current Version | Previous Version | Text Only | Print | Product List | Glossary On
Versions: 1 2 3 4 5 6 7 8 9 10 11 12 13 14 15 16 17 18 19 20 21 22 23 24 25 26
000
FTUS42 KCHS 280520
TAFSAV
TAF
KSAV 280520Z 2806/2906 VRB03KT P6SM BKN200
     FM281400 06009KT P6SM FEW035 BKN150
     FM281800 12012G19KT P6SM SCT040 BKN150
     FM290000 10006KT P6SM FEW040 BKN200=

USA.gov is the U.S. government's official web portal to all federal, state and local government web resources and services.